createdAt,value
2017-10-17T00:01:11.915Z,14.07
2017-10-17T00:03:37.985Z,13.67
2017-10-17T00:06:04.042Z,13.80
2017-10-17T00:08:30.118Z,15.63
2017-10-17T00:10:56.202Z,16.50
2017-10-17T00:13:23.047Z,13.90
2017-10-17T00:15:49.109Z,14.57
2017-10-17T00:18:15.180Z,14.60
2017-10-17T00:20:41.236Z,16.17
2017-10-17T00:23:07.294Z,17.47
2017-10-17T00:25:33.357Z,14.87
2017-10-17T00:27:59.440Z,14.90
2017-10-17T00:30:25.525Z,14.20
2017-10-17T00:32:53.483Z,15.53
2017-10-17T00:35:29.511Z,16.87
2017-10-17T00:37:58.605Z,14.97
2017-10-17T00:40:24.669Z,16.73
2017-10-17T00:42:51.511Z,14.97
2017-10-17T00:45:18.301Z,15.03
2017-10-17T00:47:44.370Z,16.60
2017-10-17T00:50:10.413Z,14.00
2017-10-17T00:52:36.464Z,16.23
2017-10-17T00:55:03.266Z,14.97
2017-10-17T00:57:29.316Z,14.33
2017-10-17T00:59:55.420Z,14.57
2017-10-17T01:02:21.509Z,15.00
2017-10-17T01:04:48.336Z,15.80
2017-10-17T01:07:14.384Z,15.70
2017-10-17T01:09:40.479Z,15.87
2017-10-17T01:12:06.526Z,16.20
2017-10-17T01:14:32.602Z,16.40
2017-10-17T01:16:58.662Z,15.67
2017-10-17T01:19:24.782Z,15.40
2017-10-17T01:21:50.833Z,16.63
2017-10-17T01:24:16.885Z,17.00
2017-10-17T01:26:42.949Z,16.17
2017-10-17T01:29:10.927Z,15.87
2017-10-17T01:31:36.974Z,17.30
2017-10-17T01:34:03.041Z,16.40
2017-10-17T01:36:29.107Z,17.47
2017-10-17T01:38:57.630Z,17.37
2017-10-17T01:41:23.721Z,17.10
2017-10-17T01:43:50.738Z,16.60
2017-10-17T01:46:19.850Z,17.30
2017-10-17T01:48:46.934Z,16.90
2017-10-17T01:51:16.639Z,16.70
2017-10-17T01:53:49.004Z,16.73
2017-10-17T01:56:30.038Z,16.70
2017-10-17T01:58:59.767Z,16.67
2017-10-17T02:01:25.871Z,17.07
2017-10-17T02:03:51.937Z,18.27
2017-10-17T02:06:18.009Z,18.10
2017-10-17T02:08:44.050Z,18.17
2017-10-17T02:11:21.833Z,17.30
2017-10-17T02:13:47.873Z,18.70
2017-10-17T02:16:13.942Z,16.73
2017-10-17T02:18:40.995Z,19.30
2017-10-17T02:21:08.323Z,17.43
2017-10-17T02:23:34.376Z,19.50
2017-10-17T02:26:13.393Z,18.10
2017-10-17T02:28:40.322Z,19.20
2017-10-17T02:31:06.377Z,18.00
2017-10-17T02:33:34.194Z,17.77
2017-10-17T02:36:00.315Z,17.87
2017-10-17T02:38:26.378Z,18.80
2017-10-17T02:40:53.208Z,18.13
2017-10-17T02:43:19.993Z,17.50
2017-10-17T02:45:46.039Z,17.67
2017-10-17T02:48:18.377Z,19.30
2017-10-17T02:50:44.430Z,17.40
2017-10-17T02:53:10.475Z,18.10
2017-10-17T02:55:36.526Z,17.70
2017-10-17T02:58:03.546Z,18.87
2017-10-17T03:00:30.333Z,18.90
2017-10-17T03:02:57.998Z,19.37
2017-10-17T03:05:27.960Z,19.23
2017-10-17T03:08:00.858Z,17.80
2017-10-17T03:10:26.909Z,20.50
2017-10-17T03:12:52.975Z,18.70
2017-10-17T03:15:21.982Z,18.80
2017-10-17T03:17:48.026Z,17.70
2017-10-17T03:20:14.081Z,20.60
2017-10-17T03:22:40.137Z,20.80
2017-10-17T03:25:06.194Z,20.00
2017-10-17T03:27:32.233Z,18.43
2017-10-17T03:29:58.276Z,19.27
2017-10-17T03:32:24.302Z,20.43
2017-10-17T03:34:50.314Z,16.83
2017-10-17T03:37:28.295Z,18.87
2017-10-17T03:39:59.206Z,20.20
2017-10-17T03:42:26.081Z,19.40
2017-10-17T03:44:53.099Z,20.87
2017-10-17T03:47:25.381Z,20.50
2017-10-17T03:49:52.281Z,19.87
2017-10-17T03:52:18.265Z,20.40
2017-10-17T03:54:45.209Z,21.10
2017-10-17T03:57:11.978Z,20.40
2017-10-17T03:59:43.648Z,21.47
2017-10-17T04:02:09.617Z,21.97
2017-10-17T04:04:51.529Z,21.30
2017-10-17T04:07:26.569Z,22.50
2017-10-17T04:10:10.489Z,22.83
2017-10-17T04:12:36.470Z,21.93
2017-10-17T04:15:04.206Z,20.83
2017-10-17T04:17:34.253Z,23.27
2017-10-17T04:20:03.294Z,22.47
2017-10-17T04:22:40.533Z,23.07
2017-10-17T04:25:07.506Z,24.90
2017-10-17T04:27:37.405Z,22.90
2017-10-17T04:30:09.378Z,20.20
2017-10-17T04:32:39.066Z,24.90
2017-10-17T04:35:06.086Z,24.40
2017-10-17T04:37:32.113Z,24.43
2017-10-17T04:39:58.130Z,25.57
2017-10-17T04:42:49.066Z,25.00
2017-10-17T04:45:27.351Z,23.60
2017-10-17T04:51:28.389Z,25.90
2017-10-17T04:54:18.428Z,27.20
2017-10-17T04:56:49.194Z,26.53
2017-10-17T04:59:19.025Z,23.97
2017-10-17T05:01:45.781Z,28.53
2017-10-17T05:04:20.065Z,27.40
2017-10-17T05:06:46.794Z,26.47
2017-10-17T05:09:22.793Z,27.13
2017-10-17T05:11:48.788Z,26.80
2017-10-17T05:17:24.058Z,27.73
2017-10-17T05:20:16.574Z,27.30
2017-10-17T05:22:52.538Z,27.83
2017-10-17T05:25:21.374Z,28.27
2017-10-17T05:30:47.442Z,27.53
2017-10-17T05:36:14.058Z,28.43
2017-10-17T05:38:40.072Z,29.50
2017-10-17T05:41:06.126Z,30.40
2017-10-17T05:43:50.681Z,26.93
2017-10-17T05:46:16.687Z,26.77
2017-10-17T05:48:44.294Z,28.07
2017-10-17T05:54:06.918Z,29.17
2017-10-17T05:56:32.939Z,26.80
2017-10-17T05:58:58.966Z,25.73
2017-10-17T06:01:25.015Z,25.20
2017-10-17T06:03:51.056Z,29.20
2017-10-17T06:06:17.053Z,27.00
2017-10-17T06:08:43.058Z,26.10
2017-10-17T06:11:09.066Z,25.97
2017-10-17T06:13:35.090Z,27.40
2017-10-17T06:16:01.110Z,26.70
2017-10-17T06:18:27.221Z,25.60
2017-10-17T06:20:53.303Z,25.30
2017-10-17T06:23:20.147Z,26.63
2017-10-17T06:25:47.021Z,27.00
2017-10-17T06:28:13.109Z,25.43
2017-10-17T06:30:39.157Z,24.47
2017-10-17T06:33:05.214Z,22.70
2017-10-17T06:35:31.320Z,24.10
2017-10-17T06:37:57.477Z,19.27
2017-10-17T06:40:23.590Z,21.10
2017-10-17T06:42:49.728Z,20.13
2017-10-17T06:45:16.566Z,18.53
2017-10-17T06:47:43.381Z,20.30
2017-10-17T06:50:10.267Z,20.47
2017-10-17T06:52:36.368Z,19.60
2017-10-17T06:55:02.469Z,18.90
2017-10-17T06:57:29.046Z,20.33
2017-10-17T06:59:55.190Z,20.80
2017-10-17T07:02:21.321Z,20.50
2017-10-17T07:04:47.424Z,23.77
2017-10-17T07:07:13.544Z,21.03
2017-10-17T07:09:39.672Z,21.87
2017-10-17T07:12:05.764Z,22.60
2017-10-17T07:14:31.834Z,22.80
2017-10-17T07:16:58.641Z,22.63
2017-10-17T07:19:24.760Z,19.53
2017-10-17T07:21:50.833Z,24.33
2017-10-17T07:24:16.940Z,23.90
2017-10-17T07:26:43.033Z,24.30
2017-10-17T07:29:09.154Z,21.77
2017-10-17T07:31:35.291Z,24.30
2017-10-17T07:34:01.448Z,20.70
2017-10-17T07:36:27.583Z,20.67
2017-10-17T07:38:53.706Z,21.20
2017-10-17T07:41:19.799Z,20.67
2017-10-17T07:43:45.874Z,16.83
2017-10-17T07:46:12.711Z,19.20
2017-10-17T07:48:39.522Z,18.00
2017-10-17T07:51:05.590Z,17.17
2017-10-17T07:53:31.693Z,17.00
2017-10-17T07:55:57.798Z,17.90
2017-10-17T07:58:23.862Z,17.43
2017-10-17T08:00:49.970Z,20.30
2017-10-17T08:03:16.077Z,19.73
2017-10-17T08:05:42.914Z,19.30
2017-10-17T08:08:09.026Z,20.53
2017-10-17T08:10:35.118Z,19.37
2017-10-17T08:13:01.189Z,19.53
2017-10-17T08:15:27.263Z,18.27
2017-10-17T08:17:54.082Z,18.03
2017-10-17T08:20:20.220Z,16.00
2017-10-17T08:22:46.266Z,20.20
2017-10-17T08:25:13.097Z,13.33
2017-10-17T08:27:39.217Z,18.03
2017-10-17T08:30:05.289Z,15.00
2017-10-17T08:32:32.542Z,17.97
2017-10-17T08:34:58.781Z,21.33
2017-10-17T08:37:24.898Z,18.10
2017-10-17T08:39:50.970Z,17.40
2017-10-17T08:42:17.042Z,18.77
2017-10-17T08:44:43.957Z,19.57
2017-10-17T08:47:10.014Z,17.37
2017-10-17T08:49:36.139Z,16.93
2017-10-17T08:52:02.245Z,18.40
2017-10-17T08:54:28.340Z,18.63
2017-10-17T08:56:54.423Z,17.00
2017-10-17T08:59:21.249Z,15.30
2017-10-17T09:01:48.062Z,16.53
2017-10-17T09:04:14.232Z,17.63
2017-10-17T09:06:40.286Z,15.33
2017-10-17T09:09:06.348Z,15.53
2017-10-17T09:11:32.462Z,15.43
2017-10-17T09:13:58.537Z,14.07
2017-10-17T09:16:24.682Z,15.43
2017-10-17T09:18:50.794Z,13.80
2017-10-17T09:21:16.930Z,14.70
2017-10-17T09:23:43.042Z,14.20
2017-10-17T09:26:09.115Z,13.83
2017-10-17T09:28:35.217Z,14.03
2017-10-17T09:31:01.304Z,11.63
2017-10-17T09:33:28.114Z,12.63
2017-10-17T09:35:54.950Z,12.77
2017-10-17T09:38:21.961Z,12.20
2017-10-17T09:40:48.065Z,11.80
2017-10-17T09:43:14.254Z,12.07
2017-10-17T09:45:42.267Z,9.73
2017-10-17T09:48:08.759Z,12.50
2017-10-17T09:50:36.086Z,11.80
2017-10-17T09:53:02.178Z,9.23
2017-10-17T09:55:28.266Z,12.70
2017-10-17T09:57:54.362Z,12.83
2017-10-17T10:00:20.418Z,13.03
2017-10-17T10:02:46.514Z,12.03
2017-10-17T10:05:12.586Z,13.23
2017-10-17T10:07:38.699Z,11.70
2017-10-17T10:10:04.799Z,11.90
2017-10-17T10:12:31.634Z,11.47
2017-10-17T10:14:57.697Z,13.70
2017-10-17T10:17:23.766Z,10.87
2017-10-17T10:19:49.822Z,11.53
2017-10-17T10:22:15.916Z,11.80
2017-10-17T10:24:41.998Z,10.30
2017-10-17T10:27:08.093Z,8.30
2017-10-17T10:29:34.877Z,10.73
2017-10-17T10:32:01.692Z,10.00
2017-10-17T10:34:27.786Z,10.20
2017-10-17T10:36:53.851Z,9.57
2017-10-17T10:39:20.710Z,10.23
2017-10-17T10:41:46.796Z,9.80
2017-10-17T10:44:12.892Z,9.83
2017-10-17T10:46:40.418Z,9.77
2017-10-17T10:49:06.509Z,9.23
2017-10-17T10:51:32.575Z,9.23
2017-10-17T10:53:59.398Z,10.80
2017-10-17T10:56:26.199Z,9.77
2017-10-17T10:58:52.383Z,9.93
2017-10-17T11:01:18.468Z,8.40
2017-10-17T11:03:44.570Z,9.73
2017-10-17T11:06:10.652Z,9.53
2017-10-17T11:08:36.696Z,9.00
2017-10-17T11:11:02.729Z,10.83
2017-10-17T11:13:28.823Z,9.43
2017-10-17T11:15:54.902Z,8.90
2017-10-17T11:18:21.993Z,8.20
2017-10-17T11:20:48.054Z,9.80
2017-10-17T11:23:15.905Z,9.10
2017-10-17T11:25:43.737Z,9.60
2017-10-17T11:28:11.556Z,11.33
2017-10-17T11:30:39.413Z,9.10
2017-10-17T11:33:07.234Z,9.00
2017-10-17T11:35:35.086Z,8.00
2017-10-17T11:38:02.888Z,8.53
2017-10-17T11:40:36.838Z,9.27
2017-10-17T11:43:10.868Z,9.43
2017-10-17T11:45:38.684Z,9.63
2017-10-17T11:48:06.560Z,8.80
2017-10-17T11:50:34.468Z,8.63
2017-10-17T11:53:02.308Z,8.67
2017-10-17T11:55:30.157Z,8.00
2017-10-17T11:57:58.018Z,8.70
2017-10-17T12:00:25.906Z,9.00
2017-10-17T12:02:53.762Z,8.40
2017-10-17T12:05:21.622Z,7.17
2017-10-17T12:07:49.482Z,6.60
2017-10-17T12:10:17.300Z,8.53
2017-10-17T12:12:45.142Z,8.20
2017-10-17T12:15:12.995Z,7.50
2017-10-17T12:17:40.874Z,7.37
2017-10-17T12:20:08.727Z,7.93
2017-10-17T12:22:36.590Z,7.73
2017-10-17T12:25:04.460Z,6.90
2017-10-17T12:27:32.318Z,7.57
2017-10-17T12:30:00.151Z,6.57
2017-10-17T12:32:28.048Z,7.07
2017-10-17T12:34:56.126Z,5.80
2017-10-17T12:37:23.981Z,6.70
2017-10-17T12:39:51.858Z,7.30
2017-10-17T12:42:19.730Z,7.30
2017-10-17T12:44:47.600Z,8.03
2017-10-17T12:47:15.421Z,6.33
2017-10-17T12:49:43.329Z,6.23
2017-10-17T12:52:11.236Z,6.60
2017-10-17T12:54:39.098Z,7.23
2017-10-17T12:57:06.962Z,6.40
2017-10-17T12:59:34.798Z,6.30
2017-10-17T13:02:02.629Z,6.83
2017-10-17T13:04:30.488Z,6.23
2017-10-17T13:06:58.701Z,7.47
2017-10-17T13:09:26.565Z,7.50
2017-10-17T13:11:54.417Z,6.13
2017-10-17T13:14:22.321Z,8.50
2017-10-17T13:16:50.188Z,6.33
2017-10-17T13:19:18.072Z,6.80
2017-10-17T13:21:45.919Z,7.20
2017-10-17T13:24:13.817Z,7.00
2017-10-17T13:26:41.651Z,6.67
2017-10-17T13:29:09.500Z,6.63
2017-10-17T13:31:37.385Z,5.93
2017-10-17T13:34:05.255Z,6.87
2017-10-17T13:36:33.137Z,7.93
2017-10-17T13:39:00.989Z,7.40
2017-10-17T13:41:28.833Z,7.27
2017-10-17T13:43:56.676Z,8.37
2017-10-17T13:46:24.523Z,6.20
2017-10-17T13:48:52.400Z,7.33
2017-10-17T13:51:20.251Z,7.27
2017-10-17T13:53:48.058Z,7.13
2017-10-17T13:56:15.912Z,6.37
2017-10-17T13:58:43.747Z,8.03
2017-10-17T14:01:11.597Z,8.30
2017-10-17T14:03:39.437Z,7.97
2017-10-17T14:06:07.302Z,6.77
2017-10-17T14:08:35.155Z,7.23
2017-10-17T14:11:02.989Z,7.80
2017-10-17T14:13:30.846Z,7.40
2017-10-17T14:15:58.693Z,6.50
2017-10-17T14:18:26.535Z,6.90
2017-10-17T14:20:54.384Z,5.80
2017-10-17T14:23:22.213Z,7.20
2017-10-17T14:25:50.042Z,7.87
2017-10-17T14:28:17.848Z,6.17
2017-10-17T14:30:45.688Z,7.00
2017-10-17T14:33:13.519Z,6.33
2017-10-17T14:35:42.388Z,6.70
2017-10-17T14:38:10.214Z,7.47
2017-10-17T14:40:38.065Z,7.27
2017-10-17T14:43:05.905Z,6.50
2017-10-17T14:45:33.790Z,5.90
2017-10-17T14:48:01.637Z,6.90
2017-10-17T14:50:29.465Z,6.87
2017-10-17T14:52:57.332Z,5.60
2017-10-17T14:55:25.194Z,6.63
2017-10-17T14:57:53.069Z,6.20
2017-10-17T15:00:20.927Z,7.80
2017-10-17T15:02:48.789Z,6.50
2017-10-17T15:05:16.640Z,6.37
2017-10-17T15:07:44.489Z,8.13
2017-10-17T15:10:12.317Z,6.30
2017-10-17T15:12:40.178Z,6.53
2017-10-17T15:15:08.001Z,6.40
2017-10-17T15:17:35.856Z,5.50
2017-10-17T15:20:03.710Z,8.37
2017-10-17T15:22:31.833Z,6.00
2017-10-17T15:24:59.673Z,5.77
2017-10-17T15:27:27.510Z,7.23
2017-10-17T15:29:55.357Z,6.30
2017-10-17T15:32:23.255Z,6.90
2017-10-17T15:34:51.093Z,5.43
2017-10-17T15:37:18.931Z,6.50
2017-10-17T15:39:46.756Z,6.10
2017-10-17T15:42:14.594Z,7.63
2017-10-17T15:44:42.489Z,7.50
2017-10-17T15:47:10.307Z,6.00
2017-10-17T15:49:38.126Z,7.13
2017-10-17T15:52:05.985Z,6.90
2017-10-17T15:54:33.833Z,7.87
2017-10-17T15:57:01.653Z,6.70
2017-10-17T15:59:29.506Z,6.73
2017-10-17T16:01:57.357Z,6.80
2017-10-17T16:04:25.177Z,6.80
2017-10-17T16:06:52.997Z,6.50
2017-10-17T16:09:20.869Z,5.83
2017-10-17T16:11:48.749Z,7.47
2017-10-17T16:14:16.594Z,7.67
2017-10-17T16:16:44.429Z,6.53
2017-10-17T16:19:12.652Z,6.50
2017-10-17T16:21:40.478Z,7.80
2017-10-17T16:24:08.309Z,7.30
2017-10-17T16:26:36.148Z,7.27
2017-10-17T16:29:04.001Z,5.57
2017-10-17T16:31:31.873Z,5.80
2017-10-17T16:33:59.706Z,6.70
2017-10-17T16:36:27.562Z,6.30
2017-10-17T16:38:55.452Z,7.60
2017-10-17T16:41:23.337Z,6.70
2017-10-17T16:43:51.149Z,8.83
2017-10-17T16:46:18.985Z,7.83
2017-10-17T16:48:46.863Z,8.77
2017-10-17T16:51:14.731Z,9.70
2017-10-17T16:53:42.618Z,6.47
2017-10-17T16:56:10.546Z,7.97
2017-10-17T16:58:38.400Z,7.40
2017-10-17T17:01:06.254Z,7.00
2017-10-17T17:03:34.101Z,8.67
2017-10-17T17:06:01.954Z,6.50
2017-10-17T17:08:29.833Z,8.90
2017-10-17T17:10:57.689Z,7.67
2017-10-17T17:13:25.589Z,7.03
2017-10-17T17:15:53.422Z,7.80
2017-10-17T17:18:21.254Z,6.60
2017-10-17T17:20:49.113Z,7.23
2017-10-17T17:23:16.965Z,6.17
2017-10-17T17:25:44.797Z,6.80
2017-10-17T17:28:12.645Z,6.97
2017-10-17T17:30:40.491Z,9.07
2017-10-17T17:33:08.351Z,8.63
2017-10-17T17:35:36.230Z,7.70
2017-10-17T17:38:04.087Z,8.53
2017-10-17T17:40:31.954Z,7.37
2017-10-17T17:42:59.797Z,8.33
2017-10-17T17:45:27.653Z,7.10
2017-10-17T17:47:55.568Z,6.97
2017-10-17T17:50:23.441Z,7.60
2017-10-17T17:52:51.293Z,6.97
2017-10-17T17:55:19.149Z,8.17
2017-10-17T17:57:47.001Z,8.57
2017-10-17T18:00:14.870Z,8.63
2017-10-17T18:02:42.783Z,9.70
2017-10-17T18:05:10.637Z,9.67
2017-10-17T18:07:38.521Z,9.33
2017-10-17T18:10:06.400Z,7.60
2017-10-17T18:12:34.233Z,10.27
2017-10-17T18:15:02.070Z,9.67
2017-10-17T18:17:29.936Z,9.07
2017-10-17T18:19:57.844Z,9.70
2017-10-17T18:22:25.652Z,9.00
2017-10-17T18:24:53.506Z,9.73
2017-10-17T18:27:21.374Z,9.57
2017-10-17T18:29:49.237Z,8.87
2017-10-17T18:32:17.134Z,10.80
2017-10-17T18:34:44.985Z,8.30
2017-10-17T18:37:12.833Z,7.10
2017-10-17T18:39:40.701Z,9.07
2017-10-17T18:42:08.537Z,8.23
2017-10-17T18:44:36.417Z,10.93
2017-10-17T18:47:04.269Z,7.90
2017-10-17T18:49:32.101Z,8.57
2017-10-17T18:52:00.006Z,8.10
2017-10-17T18:54:27.849Z,8.20
2017-10-17T18:56:55.700Z,7.73
2017-10-17T18:59:24.128Z,7.30
2017-10-17T19:01:52.036Z,8.17
2017-10-17T19:04:20.256Z,7.90
2017-10-17T19:06:48.114Z,8.67
2017-10-17T19:09:16.745Z,8.80
2017-10-17T19:11:44.630Z,9.60
2017-10-17T19:14:12.482Z,8.17
2017-10-17T19:16:40.341Z,7.40
2017-10-17T19:19:08.186Z,8.73
2017-10-17T19:21:36.039Z,8.23
2017-10-17T19:24:03.887Z,8.33
2017-10-17T19:26:31.730Z,9.40
2017-10-17T19:28:59.561Z,9.57
2017-10-17T19:31:27.416Z,9.90
2017-10-17T19:33:55.281Z,7.30
2017-10-17T19:36:23.170Z,7.83
2017-10-17T19:38:51.056Z,8.80
2017-10-17T19:41:18.909Z,8.70
2017-10-17T19:43:46.763Z,10.23
2017-10-17T19:46:14.611Z,9.17
2017-10-17T19:48:42.459Z,9.27
2017-10-17T19:51:10.406Z,9.63
2017-10-17T19:53:38.273Z,9.33
2017-10-17T19:56:06.559Z,9.30
2017-10-17T19:58:34.401Z,8.87
2017-10-17T20:01:02.238Z,9.77
2017-10-17T20:03:30.096Z,9.50
2017-10-17T20:05:57.947Z,10.77
2017-10-17T20:08:25.899Z,9.90
2017-10-17T20:10:53.785Z,10.03
2017-10-17T20:13:21.623Z,9.80
2017-10-17T20:15:49.515Z,10.53
2017-10-17T20:18:17.382Z,9.90
2017-10-17T20:20:45.245Z,11.00
2017-10-17T20:23:13.090Z,13.47
2017-10-17T20:25:40.929Z,10.80
2017-10-17T20:28:08.785Z,10.50
2017-10-17T20:30:36.680Z,9.93
2017-10-17T20:33:04.540Z,9.43
2017-10-17T20:35:32.393Z,12.00
2017-10-17T20:38:00.247Z,10.90
2017-10-17T20:40:28.093Z,10.90
2017-10-17T20:42:55.929Z,11.43
2017-10-17T20:45:23.805Z,11.20
2017-10-17T20:47:51.626Z,11.90
2017-10-17T20:50:19.509Z,10.97
2017-10-17T20:52:47.358Z,11.20
2017-10-17T20:55:15.227Z,12.87
2017-10-17T20:57:43.089Z,11.93
2017-10-17T21:00:10.952Z,13.40
2017-10-17T21:02:38.838Z,12.80
2017-10-17T21:05:06.683Z,11.83
2017-10-17T21:07:34.556Z,11.33
2017-10-17T21:10:02.369Z,12.70
2017-10-17T21:12:30.237Z,12.13
2017-10-17T21:14:58.072Z,12.27
2017-10-17T21:17:25.929Z,12.80
2017-10-17T21:19:53.780Z,12.20
2017-10-17T21:22:21.624Z,12.73
2017-10-17T21:24:49.473Z,13.30
2017-10-17T21:27:17.317Z,12.37
2017-10-17T21:29:45.158Z,12.97
2017-10-17T21:32:12.996Z,11.97
2017-10-17T21:34:40.837Z,13.00
2017-10-17T21:37:08.662Z,12.20
2017-10-17T21:39:36.482Z,13.20
2017-10-17T21:42:04.325Z,12.40
2017-10-17T21:44:32.158Z,13.03
2017-10-17T21:46:59.996Z,13.47
2017-10-17T21:49:27.820Z,12.97
2017-10-17T21:51:55.721Z,12.23
2017-10-17T21:54:23.618Z,13.30
2017-10-17T21:56:51.478Z,13.97
2017-10-17T21:59:19.329Z,14.70
2017-10-17T22:01:47.169Z,13.83
2017-10-17T22:04:15.009Z,12.83
2017-10-17T22:06:42.865Z,13.10
2017-10-17T22:09:10.740Z,12.43
2017-10-17T22:11:38.629Z,10.23
2017-10-17T22:14:06.472Z,11.93
2017-10-17T22:16:34.310Z,13.23
2017-10-17T22:19:02.234Z,12.80
2017-10-17T22:21:30.068Z,14.30
2017-10-17T22:23:57.930Z,15.33
2017-10-17T22:26:26.126Z,13.57
2017-10-17T22:28:53.992Z,13.40
2017-10-17T22:31:21.849Z,13.80
2017-10-17T22:33:49.697Z,13.17
2017-10-17T22:36:17.579Z,11.80
2017-10-17T22:38:45.443Z,12.13
2017-10-17T22:41:13.264Z,13.20
2017-10-17T22:43:41.103Z,14.00
2017-10-17T22:46:08.951Z,12.70
2017-10-17T22:48:36.797Z,11.50
2017-10-17T22:51:04.624Z,13.73
2017-10-17T22:53:32.462Z,11.80
2017-10-17T22:56:00.297Z,12.47
2017-10-17T22:58:28.121Z,12.20
2017-10-17T23:00:55.960Z,11.23
2017-10-17T23:03:23.835Z,14.43
2017-10-17T23:05:51.697Z,11.87
2017-10-17T23:08:19.560Z,12.40
2017-10-17T23:10:47.399Z,12.87
2017-10-17T23:13:15.293Z,12.77
2017-10-17T23:15:43.117Z,14.80
2017-10-17T23:18:17.131Z,13.50
2017-10-17T23:20:44.973Z,13.40
2017-10-17T23:23:12.824Z,11.80
2017-10-17T23:25:40.640Z,16.63
2017-10-17T23:28:08.489Z,12.90
2017-10-17T23:30:36.318Z,14.00
2017-10-17T23:33:04.154Z,14.37
2017-10-17T23:35:32.024Z,15.47
2017-10-17T23:37:59.872Z,13.17
2017-10-17T23:40:27.733Z,14.07
2017-10-17T23:42:55.578Z,14.20
2017-10-17T23:45:23.510Z,12.83
2017-10-17T23:47:51.353Z,15.30
2017-10-17T23:50:19.185Z,14.30
2017-10-17T23:52:47.053Z,14.00
2017-10-17T23:55:14.882Z,15.90
2017-10-17T23:57:42.736Z,14.27
